sensor_id;sensor_type;location;lat;lon;timestamp;P1;durP1;ratioP1;P2;durP2;ratioP2
47772;SDS011;33534;51.028;13.716;2022-12-18T00:01:17;47.20;;;23.52;;
47772;SDS011;33534;51.028;13.716;2022-12-18T00:03:43;48.95;;;24.77;;
47772;SDS011;33534;51.028;13.716;2022-12-18T00:06:09;49.95;;;25.10;;
47772;SDS011;33534;51.028;13.716;2022-12-18T00:08:36;49.42;;;23.13;;
47772;SDS011;33534;51.028;13.716;2022-12-18T00:11:07;51.20;;;23.15;;
47772;SDS011;33534;51.028;13.716;2022-12-18T00:13:34;49.50;;;22.83;;
47772;SDS011;33534;51.028;13.716;2022-12-18T00:16:10;52.03;;;24.52;;
47772;SDS011;33534;51.028;13.716;2022-12-18T00:18:39;54.10;;;25.10;;
47772;SDS011;33534;51.028;13.716;2022-12-18T00:21:06;48.38;;;24.75;;
47772;SDS011;33534;51.028;13.716;2022-12-18T00:23:33;49.00;;;23.77;;
47772;SDS011;33534;51.028;13.716;2022-12-18T00:26:05;49.72;;;23.23;;
47772;SDS011;33534;51.028;13.716;2022-12-18T00:28:31;45.05;;;23.70;;
47772;SDS011;33534;51.028;13.716;2022-12-18T00:31:05;54.17;;;24.30;;
47772;SDS011;33534;51.028;13.716;2022-12-18T00:33:31;48.22;;;22.52;;
47772;SDS011;33534;51.028;13.716;2022-12-18T00:36:01;49.65;;;23.73;;
47772;SDS011;33534;51.028;13.716;2022-12-18T00:38:27;50.65;;;24.05;;
47772;SDS011;33534;51.028;13.716;2022-12-18T00:40:53;44.75;;;21.52;;
47772;SDS011;33534;51.028;13.716;2022-12-18T00:43:25;48.15;;;21.85;;
47772;SDS011;33534;51.028;13.716;2022-12-18T00:45:51;50.97;;;24.90;;
47772;SDS011;33534;51.028;13.716;2022-12-18T00:48:17;43.63;;;21.88;;
47772;SDS011;33534;51.028;13.716;2022-12-18T00:50:43;46.22;;;21.52;;
47772;SDS011;33534;51.028;13.716;2022-12-18T00:53:10;41.92;;;20.77;;
47772;SDS011;33534;51.028;13.716;2022-12-18T00:55:39;48.63;;;23.33;;
47772;SDS011;33534;51.028;13.716;2022-12-18T00:58:05;42.83;;;20.70;;
47772;SDS011;33534;51.028;13.716;2022-12-18T01:00:33;45.20;;;21.85;;
47772;SDS011;33534;51.028;13.716;2022-12-18T01:02:59;51.95;;;22.65;;
47772;SDS011;33534;51.028;13.716;2022-12-18T01:05:26;47.30;;;20.98;;
47772;SDS011;33534;51.028;13.716;2022-12-18T01:07:54;52.40;;;21.95;;
47772;SDS011;33534;51.028;13.716;2022-12-18T01:10:21;42.88;;;20.80;;
47772;SDS011;33534;51.028;13.716;2022-12-18T01:12:47;43.67;;;21.58;;
47772;SDS011;33534;51.028;13.716;2022-12-18T01:15:15;40.75;;;19.83;;
47772;SDS011;33534;51.028;13.716;2022-12-18T01:17:42;43.70;;;19.90;;
47772;SDS011;33534;51.028;13.716;2022-12-18T01:20:08;41.30;;;21.20;;
47772;SDS011;33534;51.028;13.716;2022-12-18T01:22:35;43.28;;;20.00;;
47772;SDS011;33534;51.028;13.716;2022-12-18T01:25:01;42.15;;;20.50;;
47772;SDS011;33534;51.028;13.716;2022-12-18T01:27:27;50.88;;;22.83;;
47772;SDS011;33534;51.028;13.716;2022-12-18T01:29:56;41.95;;;21.40;;
47772;SDS011;33534;51.028;13.716;2022-12-18T01:32:22;45.80;;;20.05;;
47772;SDS011;33534;51.028;13.716;2022-12-18T01:34:51;43.22;;;18.73;;
47772;SDS011;33534;51.028;13.716;2022-12-18T01:37:17;47.40;;;21.25;;
47772;SDS011;33534;51.028;13.716;2022-12-18T01:39:43;41.90;;;21.10;;
47772;SDS011;33534;51.028;13.716;2022-12-18T01:42:13;42.28;;;19.58;;
47772;SDS011;33534;51.028;13.716;2022-12-18T01:49:56;48.92;;;21.52;;
47772;SDS011;33534;51.028;13.716;2022-12-18T01:52:23;41.95;;;17.67;;
47772;SDS011;33534;51.028;13.716;2022-12-18T01:54:50;41.60;;;20.02;;
47772;SDS011;33534;51.028;13.716;2022-12-18T01:57:17;42.85;;;18.90;;
47772;SDS011;33534;51.028;13.716;2022-12-18T01:59:46;39.58;;;18.60;;
47772;SDS011;33534;51.028;13.716;2022-12-18T02:02:13;44.90;;;19.63;;
47772;SDS011;33534;51.028;13.716;2022-12-18T02:04:43;41.22;;;18.98;;
47772;SDS011;33534;51.028;13.716;2022-12-18T02:07:16;42.15;;;19.58;;
47772;SDS011;33534;51.028;13.716;2022-12-18T02:09:48;39.20;;;18.40;;
47772;SDS011;33534;51.028;13.716;2022-12-18T02:12:18;45.25;;;22.80;;
47772;SDS011;33534;51.028;13.716;2022-12-18T02:17:33;37.08;;;17.75;;
47772;SDS011;33534;51.028;13.716;2022-12-18T02:27:51;41.65;;;18.50;;
47772;SDS011;33534;51.028;13.716;2022-12-18T02:30:18;45.38;;;19.08;;
47772;SDS011;33534;51.028;13.716;2022-12-18T02:32:49;38.60;;;18.13;;
47772;SDS011;33534;51.028;13.716;2022-12-18T02:35:17;38.47;;;18.50;;
47772;SDS011;33534;51.028;13.716;2022-12-18T02:38:01;31.10;;;12.93;;
47772;SDS011;33534;51.028;13.716;2022-12-18T02:40:34;37.97;;;16.80;;
47772;SDS011;33534;51.028;13.716;2022-12-18T02:43:15;36.58;;;17.98;;
47772;SDS011;33534;51.028;13.716;2022-12-18T02:45:48;25.83;;;13.93;;
47772;SDS011;33534;51.028;13.716;2022-12-18T02:48:15;35.90;;;17.02;;
47772;SDS011;33534;51.028;13.716;2022-12-18T02:50:51;41.10;;;19.48;;
47772;SDS011;33534;51.028;13.716;2022-12-18T02:53:24;38.28;;;18.10;;
47772;SDS011;33534;51.028;13.716;2022-12-18T02:55:56;41.53;;;17.88;;
47772;SDS011;33534;51.028;13.716;2022-12-18T03:03:19;46.10;;;20.92;;
47772;SDS011;33534;51.028;13.716;2022-12-18T03:05:56;50.33;;;22.98;;
47772;SDS011;33534;51.028;13.716;2022-12-18T03:08:26;43.50;;;19.27;;
47772;SDS011;33534;51.028;13.716;2022-12-18T03:10:55;37.17;;;18.58;;
47772;SDS011;33534;51.028;13.716;2022-12-18T03:13:25;42.13;;;18.98;;
47772;SDS011;33534;51.028;13.716;2022-12-18T03:15:53;36.05;;;16.60;;
47772;SDS011;33534;51.028;13.716;2022-12-18T03:18:24;38.35;;;17.33;;
47772;SDS011;33534;51.028;13.716;2022-12-18T03:20:54;30.05;;;13.93;;
47772;SDS011;33534;51.028;13.716;2022-12-18T03:23:22;35.85;;;16.08;;
47772;SDS011;33534;51.028;13.716;2022-12-18T03:25:51;37.60;;;18.23;;
47772;SDS011;33534;51.028;13.716;2022-12-18T03:28:19;40.83;;;17.02;;
47772;SDS011;33534;51.028;13.716;2022-12-18T03:30:46;38.20;;;16.27;;
47772;SDS011;33534;51.028;13.716;2022-12-18T03:33:18;36.17;;;15.38;;
47772;SDS011;33534;51.028;13.716;2022-12-18T03:35:45;32.00;;;15.45;;
47772;SDS011;33534;51.028;13.716;2022-12-18T03:38:12;35.50;;;15.27;;
47772;SDS011;33534;51.028;13.716;2022-12-18T03:40:51;37.83;;;16.20;;
47772;SDS011;33534;51.028;13.716;2022-12-18T03:43:20;37.50;;;15.85;;
47772;SDS011;33534;51.028;13.716;2022-12-18T03:45:53;35.17;;;16.00;;
47772;SDS011;33534;51.028;13.716;2022-12-18T03:48:34;32.72;;;15.27;;
47772;SDS011;33534;51.028;13.716;2022-12-18T03:51:05;35.80;;;15.10;;
47772;SDS011;33534;51.028;13.716;2022-12-18T03:53:37;36.33;;;14.57;;
47772;SDS011;33534;51.028;13.716;2022-12-18T03:56:04;31.50;;;13.88;;
47772;SDS011;33534;51.028;13.716;2022-12-18T03:58:34;34.33;;;15.05;;
47772;SDS011;33534;51.028;13.716;2022-12-18T04:01:01;29.80;;;13.88;;
47772;SDS011;33534;51.028;13.716;2022-12-18T04:03:28;29.58;;;12.75;;
47772;SDS011;33534;51.028;13.716;2022-12-18T04:05:55;31.85;;;15.02;;
47772;SDS011;33534;51.028;13.716;2022-12-18T04:08:25;35.95;;;14.68;;
47772;SDS011;33534;51.028;13.716;2022-12-18T04:10:54;28.48;;;13.25;;
47772;SDS011;33534;51.028;13.716;2022-12-18T04:13:21;30.48;;;14.18;;
47772;SDS011;33534;51.028;13.716;2022-12-18T04:15:47;28.45;;;13.15;;
47772;SDS011;33534;51.028;13.716;2022-12-18T04:18:13;32.92;;;13.88;;
47772;SDS011;33534;51.028;13.716;2022-12-18T04:20:39;27.83;;;14.07;;
47772;SDS011;33534;51.028;13.716;2022-12-18T04:23:06;29.58;;;13.15;;
47772;SDS011;33534;51.028;13.716;2022-12-18T04:25:32;24.60;;;13.05;;
47772;SDS011;33534;51.028;13.716;2022-12-18T04:28:00;25.30;;;12.18;;
47772;SDS011;33534;51.028;13.716;2022-12-18T04:30:26;30.00;;;14.82;;
47772;SDS011;33534;51.028;13.716;2022-12-18T04:32:57;31.85;;;15.15;;
47772;SDS011;33534;51.028;13.716;2022-12-18T04:35:26;29.17;;;13.15;;
47772;SDS011;33534;51.028;13.716;2022-12-18T04:37:53;32.30;;;13.68;;
47772;SDS011;33534;51.028;13.716;2022-12-18T04:40:19;24.52;;;12.38;;
47772;SDS011;33534;51.028;13.716;2022-12-18T04:42:47;29.50;;;12.88;;
47772;SDS011;33534;51.028;13.716;2022-12-18T04:45:13;32.03;;;12.95;;
47772;SDS011;33534;51.028;13.716;2022-12-18T04:47:39;25.55;;;12.45;;
47772;SDS011;33534;51.028;13.716;2022-12-18T04:50:05;27.67;;;12.63;;
47772;SDS011;33534;51.028;13.716;2022-12-18T04:52:31;28.20;;;12.65;;
47772;SDS011;33534;51.028;13.716;2022-12-18T04:54:57;29.25;;;12.70;;
47772;SDS011;33534;51.028;13.716;2022-12-18T04:57:23;26.50;;;11.85;;
47772;SDS011;33534;51.028;13.716;2022-12-18T04:59:49;26.38;;;10.50;;
47772;SDS011;33534;51.028;13.716;2022-12-18T05:02:19;26.33;;;11.07;;
47772;SDS011;33534;51.028;13.716;2022-12-18T05:04:45;27.67;;;11.48;;
47772;SDS011;33534;51.028;13.716;2022-12-18T05:07:11;23.88;;;10.05;;
47772;SDS011;33534;51.028;13.716;2022-12-18T05:09:37;23.85;;;11.32;;
47772;SDS011;33534;51.028;13.716;2022-12-18T05:12:03;25.83;;;11.18;;
47772;SDS011;33534;51.028;13.716;2022-12-18T05:14:29;23.33;;;11.10;;
47772;SDS011;33534;51.028;13.716;2022-12-18T05:16:55;23.25;;;10.73;;
47772;SDS011;33534;51.028;13.716;2022-12-18T05:19:21;21.92;;;11.02;;
47772;SDS011;33534;51.028;13.716;2022-12-18T05:21:47;22.48;;;11.18;;
47772;SDS011;33534;51.028;13.716;2022-12-18T05:24:13;25.02;;;11.05;;
47772;SDS011;33534;51.028;13.716;2022-12-18T05:26:39;24.52;;;10.80;;
47772;SDS011;33534;51.028;13.716;2022-12-18T05:29:08;22.65;;;10.27;;
47772;SDS011;33534;51.028;13.716;2022-12-18T05:31:37;20.42;;;10.32;;
47772;SDS011;33534;51.028;13.716;2022-12-18T05:34:05;22.05;;;10.32;;
47772;SDS011;33534;51.028;13.716;2022-12-18T05:36:31;22.60;;;11.00;;
47772;SDS011;33534;51.028;13.716;2022-12-18T05:38:57;25.95;;;10.75;;
47772;SDS011;33534;51.028;13.716;2022-12-18T05:41:25;24.08;;;10.90;;
47772;SDS011;33534;51.028;13.716;2022-12-18T05:43:51;26.23;;;11.20;;
47772;SDS011;33534;51.028;13.716;2022-12-18T05:46:19;23.27;;;10.15;;
47772;SDS011;33534;51.028;13.716;2022-12-18T05:48:45;21.70;;;10.18;;
47772;SDS011;33534;51.028;13.716;2022-12-18T05:51:13;22.65;;;11.23;;
47772;SDS011;33534;51.028;13.716;2022-12-18T05:53:43;23.60;;;10.82;;
47772;SDS011;33534;51.028;13.716;2022-12-18T05:56:19;25.80;;;10.27;;
47772;SDS011;33534;51.028;13.716;2022-12-18T05:58:46;23.10;;;11.00;;
47772;SDS011;33534;51.028;13.716;2022-12-18T06:01:16;23.37;;;10.40;;
47772;SDS011;33534;51.028;13.716;2022-12-18T06:03:45;22.13;;;9.98;;
47772;SDS011;33534;51.028;13.716;2022-12-18T06:08:39;21.02;;;10.75;;
47772;SDS011;33534;51.028;13.716;2022-12-18T06:11:05;26.70;;;10.25;;
47772;SDS011;33534;51.028;13.716;2022-12-18T06:13:31;27.38;;;11.25;;
47772;SDS011;33534;51.028;13.716;2022-12-18T06:15:58;25.83;;;10.50;;
47772;SDS011;33534;51.028;13.716;2022-12-18T06:18:24;25.37;;;11.13;;
47772;SDS011;33534;51.028;13.716;2022-12-18T06:20:56;20.73;;;10.40;;
47772;SDS011;33534;51.028;13.716;2022-12-18T06:23:22;24.00;;;10.40;;
47772;SDS011;33534;51.028;13.716;2022-12-18T06:25:48;20.63;;;10.35;;
47772;SDS011;33534;51.028;13.716;2022-12-18T06:28:14;18.00;;;9.93;;
47772;SDS011;33534;51.028;13.716;2022-12-18T06:30:44;19.38;;;10.35;;
47772;SDS011;33534;51.028;13.716;2022-12-18T06:33:10;21.35;;;10.68;;
47772;SDS011;33534;51.028;13.716;2022-12-18T06:35:36;25.40;;;11.43;;
47772;SDS011;33534;51.028;13.716;2022-12-18T06:38:02;22.93;;;10.83;;
47772;SDS011;33534;51.028;13.716;2022-12-18T06:40:29;19.48;;;10.30;;
47772;SDS011;33534;51.028;13.716;2022-12-18T06:42:55;22.48;;;10.57;;
47772;SDS011;33534;51.028;13.716;2022-12-18T06:45:21;23.55;;;10.50;;
47772;SDS011;33534;51.028;13.716;2022-12-18T06:47:47;22.23;;;9.90;;
47772;SDS011;33534;51.028;13.716;2022-12-18T06:50:13;24.35;;;9.52;;
47772;SDS011;33534;51.028;13.716;2022-12-18T06:52:48;24.50;;;10.48;;
47772;SDS011;33534;51.028;13.716;2022-12-18T06:55:14;23.45;;;10.32;;
47772;SDS011;33534;51.028;13.716;2022-12-18T06:57:40;28.83;;;12.15;;
47772;SDS011;33534;51.028;13.716;2022-12-18T07:00:06;21.52;;;10.85;;
47772;SDS011;33534;51.028;13.716;2022-12-18T07:02:32;22.03;;;10.17;;
47772;SDS011;33534;51.028;13.716;2022-12-18T07:04:58;23.98;;;10.60;;
47772;SDS011;33534;51.028;13.716;2022-12-18T07:07:25;24.33;;;10.80;;
47772;SDS011;33534;51.028;13.716;2022-12-18T07:09:51;21.58;;;10.93;;
47772;SDS011;33534;51.028;13.716;2022-12-18T07:12:19;24.20;;;11.47;;
47772;SDS011;33534;51.028;13.716;2022-12-18T07:14:45;25.52;;;10.65;;
47772;SDS011;33534;51.028;13.716;2022-12-18T07:17:11;27.60;;;11.47;;
47772;SDS011;33534;51.028;13.716;2022-12-18T07:19:37;21.75;;;11.30;;
47772;SDS011;33534;51.028;13.716;2022-12-18T07:22:03;25.80;;;11.10;;
47772;SDS011;33534;51.028;13.716;2022-12-18T07:24:31;28.15;;;10.82;;
47772;SDS011;33534;51.028;13.716;2022-12-18T07:27:00;22.08;;;10.73;;
47772;SDS011;33534;51.028;13.716;2022-12-18T07:29:26;26.15;;;11.68;;
47772;SDS011;33534;51.028;13.716;2022-12-18T07:31:52;19.65;;;9.25;;
47772;SDS011;33534;51.028;13.716;2022-12-18T07:34:18;23.95;;;10.50;;
47772;SDS011;33534;51.028;13.716;2022-12-18T07:36:44;25.83;;;10.98;;
47772;SDS011;33534;51.028;13.716;2022-12-18T07:39:10;24.20;;;11.88;;
47772;SDS011;33534;51.028;13.716;2022-12-18T07:41:36;25.75;;;11.45;;
47772;SDS011;33534;51.028;13.716;2022-12-18T07:44:02;21.02;;;10.18;;
47772;SDS011;33534;51.028;13.716;2022-12-18T07:46:28;19.15;;;10.70;;
47772;SDS011;33534;51.028;13.716;2022-12-18T07:48:54;21.73;;;11.13;;
47772;SDS011;33534;51.028;13.716;2022-12-18T07:51:20;23.23;;;11.75;;
47772;SDS011;33534;51.028;13.716;2022-12-18T07:53:47;24.83;;;11.80;;
47772;SDS011;33534;51.028;13.716;2022-12-18T07:56:13;24.58;;;10.90;;
47772;SDS011;33534;51.028;13.716;2022-12-18T07:58:39;24.98;;;13.43;;
47772;SDS011;33534;51.028;13.716;2022-12-18T08:01:06;28.75;;;11.85;;
47772;SDS011;33534;51.028;13.716;2022-12-18T08:03:32;28.63;;;12.45;;
47772;SDS011;33534;51.028;13.716;2022-12-18T08:05:59;31.77;;;12.57;;
47772;SDS011;33534;51.028;13.716;2022-12-18T08:08:26;27.75;;;12.25;;
47772;SDS011;33534;51.028;13.716;2022-12-18T08:10:52;28.65;;;12.60;;
47772;SDS011;33534;51.028;13.716;2022-12-18T08:13:18;31.92;;;13.52;;
47772;SDS011;33534;51.028;13.716;2022-12-18T08:15:44;37.30;;;14.90;;
47772;SDS011;33534;51.028;13.716;2022-12-18T08:18:10;29.15;;;14.05;;
47772;SDS011;33534;51.028;13.716;2022-12-18T08:20:36;30.33;;;13.13;;
47772;SDS011;33534;51.028;13.716;2022-12-18T08:23:02;29.20;;;14.95;;
47772;SDS011;33534;51.028;13.716;2022-12-18T08:25:28;26.20;;;14.20;;
47772;SDS011;33534;51.028;13.716;2022-12-18T08:27:54;29.08;;;12.68;;
47772;SDS011;33534;51.028;13.716;2022-12-18T08:30:24;28.92;;;13.75;;
47772;SDS011;33534;51.028;13.716;2022-12-18T08:32:52;31.17;;;15.43;;
47772;SDS011;33534;51.028;13.716;2022-12-18T08:35:29;28.63;;;14.15;;
47772;SDS011;33534;51.028;13.716;2022-12-18T08:37:55;31.05;;;14.30;;
47772;SDS011;33534;51.028;13.716;2022-12-18T08:40:21;32.85;;;15.57;;
47772;SDS011;33534;51.028;13.716;2022-12-18T08:42:50;34.15;;;16.23;;
47772;SDS011;33534;51.028;13.716;2022-12-18T08:45:34;33.95;;;17.15;;
47772;SDS011;33534;51.028;13.716;2022-12-18T08:48:01;33.38;;;16.77;;
47772;SDS011;33534;51.028;13.716;2022-12-18T08:50:29;33.63;;;16.05;;
47772;SDS011;33534;51.028;13.716;2022-12-18T08:52:55;32.00;;;15.73;;
47772;SDS011;33534;51.028;13.716;2022-12-18T08:55:21;38.75;;;17.27;;
47772;SDS011;33534;51.028;13.716;2022-12-18T08:57:48;34.05;;;16.55;;
47772;SDS011;33534;51.028;13.716;2022-12-18T09:00:20;32.75;;;16.88;;
47772;SDS011;33534;51.028;13.716;2022-12-18T09:02:48;34.63;;;18.13;;
47772;SDS011;33534;51.028;13.716;2022-12-18T09:05:14;38.78;;;21.23;;
47772;SDS011;33534;51.028;13.716;2022-12-18T09:07:40;39.28;;;19.85;;
47772;SDS011;33534;51.028;13.716;2022-12-18T09:10:06;31.63;;;16.02;;
47772;SDS011;33534;51.028;13.716;2022-12-18T09:12:33;37.38;;;16.13;;
47772;SDS011;33534;51.028;13.716;2022-12-18T09:14:59;33.67;;;15.63;;
47772;SDS011;33534;51.028;13.716;2022-12-18T09:17:25;38.58;;;16.50;;
47772;SDS011;33534;51.028;13.716;2022-12-18T09:19:51;35.08;;;16.08;;
47772;SDS011;33534;51.028;13.716;2022-12-18T09:22:17;34.38;;;16.23;;
47772;SDS011;33534;51.028;13.716;2022-12-18T09:24:43;30.50;;;14.85;;
47772;SDS011;33534;51.028;13.716;2022-12-18T09:27:09;34.97;;;17.65;;
47772;SDS011;33534;51.028;13.716;2022-12-18T09:29:35;35.83;;;16.15;;
47772;SDS011;33534;51.028;13.716;2022-12-18T09:32:01;33.45;;;16.25;;
47772;SDS011;33534;51.028;13.716;2022-12-18T09:34:27;34.50;;;16.63;;
47772;SDS011;33534;51.028;13.716;2022-12-18T09:36:53;36.95;;;17.67;;
47772;SDS011;33534;51.028;13.716;2022-12-18T09:39:19;37.70;;;17.20;;
47772;SDS011;33534;51.028;13.716;2022-12-18T09:49:22;37.25;;;17.08;;
47772;SDS011;33534;51.028;13.716;2022-12-18T09:51:50;37.28;;;17.83;;
47772;SDS011;33534;51.028;13.716;2022-12-18T09:54:20;41.67;;;19.23;;
47772;SDS011;33534;51.028;13.716;2022-12-18T09:56:47;36.40;;;18.35;;
47772;SDS011;33534;51.028;13.716;2022-12-18T09:59:21;42.67;;;19.45;;
47772;SDS011;33534;51.028;13.716;2022-12-18T10:01:49;43.05;;;20.45;;
47772;SDS011;33534;51.028;13.716;2022-12-18T10:04:15;37.67;;;19.13;;
47772;SDS011;33534;51.028;13.716;2022-12-18T10:11:50;43.45;;;20.20;;
47772;SDS011;33534;51.028;13.716;2022-12-18T10:16:59;46.38;;;22.15;;
47772;SDS011;33534;51.028;13.716;2022-12-18T10:19:43;48.97;;;21.95;;
47772;SDS011;33534;51.028;13.716;2022-12-18T10:27:25;52.13;;;22.00;;
47772;SDS011;33534;51.028;13.716;2022-12-18T10:29:51;45.03;;;21.77;;
47772;SDS011;33534;51.028;13.716;2022-12-18T10:32:19;46.22;;;22.00;;
47772;SDS011;33534;51.028;13.716;2022-12-18T10:34:49;47.60;;;22.23;;
47772;SDS011;33534;51.028;13.716;2022-12-18T10:37:16;45.00;;;22.02;;
47772;SDS011;33534;51.028;13.716;2022-12-18T10:39:43;49.28;;;23.50;;
47772;SDS011;33534;51.028;13.716;2022-12-18T10:42:16;45.80;;;21.75;;
47772;SDS011;33534;51.028;13.716;2022-12-18T10:44:43;47.53;;;21.10;;
47772;SDS011;33534;51.028;13.716;2022-12-18T10:47:11;48.08;;;22.60;;
47772;SDS011;33534;51.028;13.716;2022-12-18T10:49:38;42.75;;;21.33;;
47772;SDS011;33534;51.028;13.716;2022-12-18T10:52:17;42.38;;;20.33;;
47772;SDS011;33534;51.028;13.716;2022-12-18T10:54:51;43.85;;;20.77;;
47772;SDS011;33534;51.028;13.716;2022-12-18T10:59:51;44.50;;;21.38;;
47772;SDS011;33534;51.028;13.716;2022-12-18T11:02:34;47.60;;;21.38;;
47772;SDS011;33534;51.028;13.716;2022-12-18T11:05:00;47.00;;;21.17;;
47772;SDS011;33534;51.028;13.716;2022-12-18T11:07:29;47.70;;;20.00;;
47772;SDS011;33534;51.028;13.716;2022-12-18T11:10:15;45.53;;;22.60;;
47772;SDS011;33534;51.028;13.716;2022-12-18T11:12:42;47.60;;;20.20;;
47772;SDS011;33534;51.028;13.716;2022-12-18T11:15:14;46.28;;;21.67;;
47772;SDS011;33534;51.028;13.716;2022-12-18T11:17:40;49.67;;;21.05;;
47772;SDS011;33534;51.028;13.716;2022-12-18T11:20:53;53.05;;;22.10;;
47772;SDS011;33534;51.028;13.716;2022-12-18T11:22:54;48.42;;;21.35;;
47772;SDS011;33534;51.028;13.716;2022-12-18T11:25:21;50.53;;;22.50;;
47772;SDS011;33534;51.028;13.716;2022-12-18T11:27:58;52.38;;;23.38;;
47772;SDS011;33534;51.028;13.716;2022-12-18T11:30:28;50.00;;;22.98;;
47772;SDS011;33534;51.028;13.716;2022-12-18T11:33:03;52.95;;;21.75;;
47772;SDS011;33534;51.028;13.716;2022-12-18T11:35:47;45.47;;;22.70;;
47772;SDS011;33534;51.028;13.716;2022-12-18T11:38:23;50.35;;;23.90;;
47772;SDS011;33534;51.028;13.716;2022-12-18T11:40:55;47.53;;;21.58;;
47772;SDS011;33534;51.028;13.716;2022-12-18T11:43:25;45.85;;;21.40;;
47772;SDS011;33534;51.028;13.716;2022-12-18T11:45:53;44.33;;;19.83;;
47772;SDS011;33534;51.028;13.716;2022-12-18T11:48:30;39.83;;;18.73;;
47772;SDS011;33534;51.028;13.716;2022-12-18T11:50:58;37.53;;;19.42;;
47772;SDS011;33534;51.028;13.716;2022-12-18T11:53:26;41.28;;;19.52;;
47772;SDS011;33534;51.028;13.716;2022-12-18T12:06:09;42.58;;;18.58;;
47772;SDS011;33534;51.028;13.716;2022-12-18T12:14:01;42.05;;;19.48;;
47772;SDS011;33534;51.028;13.716;2022-12-18T12:16:29;45.60;;;19.20;;
47772;SDS011;33534;51.028;13.716;2022-12-18T12:19:02;47.05;;;21.17;;
47772;SDS011;33534;51.028;13.716;2022-12-18T12:27:35;46.20;;;20.05;;
47772;SDS011;33534;51.028;13.716;2022-12-18T12:32:05;41.70;;;20.13;;
47772;SDS011;33534;51.028;13.716;2022-12-18T12:39:37;38.65;;;18.67;;
47772;SDS011;33534;51.028;13.716;2022-12-18T12:42:04;44.92;;;19.73;;
47772;SDS011;33534;51.028;13.716;2022-12-18T12:44:51;48.38;;;21.63;;
47772;SDS011;33534;51.028;13.716;2022-12-18T12:47:20;43.28;;;18.70;;
47772;SDS011;33534;51.028;13.716;2022-12-18T12:49:48;49.10;;;20.52;;
47772;SDS011;33534;51.028;13.716;2022-12-18T12:52:15;46.72;;;19.00;;
47772;SDS011;33534;51.028;13.716;2022-12-18T12:54:42;47.05;;;20.98;;
47772;SDS011;33534;51.028;13.716;2022-12-18T12:57:14;47.05;;;19.35;;
47772;SDS011;33534;51.028;13.716;2022-12-18T12:59:51;41.35;;;20.25;;
47772;SDS011;33534;51.028;13.716;2022-12-18T13:04:58;46.38;;;19.63;;
47772;SDS011;33534;51.028;13.716;2022-12-18T13:07:27;38.78;;;19.08;;
47772;SDS011;33534;51.028;13.716;2022-12-18T13:10:22;42.00;;;17.95;;
47772;SDS011;33534;51.028;13.716;2022-12-18T13:12:57;43.22;;;18.92;;
47772;SDS011;33534;51.028;13.716;2022-12-18T13:15:25;41.35;;;18.17;;
47772;SDS011;33534;51.028;13.716;2022-12-18T13:25:47;45.00;;;18.58;;
47772;SDS011;33534;51.028;13.716;2022-12-18T13:28:14;46.72;;;20.10;;
47772;SDS011;33534;51.028;13.716;2022-12-18T13:30:41;44.65;;;20.67;;
47772;SDS011;33534;51.028;13.716;2022-12-18T13:35:42;44.75;;;20.30;;
47772;SDS011;33534;51.028;13.716;2022-12-18T13:46:27;42.33;;;19.77;;
47772;SDS011;33534;51.028;13.716;2022-12-18T13:48:36;47.33;;;19.85;;
47772;SDS011;33534;51.028;13.716;2022-12-18T13:51:07;50.85;;;20.55;;
47772;SDS011;33534;51.028;13.716;2022-12-18T13:53:44;44.20;;;20.17;;
47772;SDS011;33534;51.028;13.716;2022-12-18T13:56:20;50.38;;;21.77;;
47772;SDS011;33534;51.028;13.716;2022-12-18T13:59:02;45.70;;;19.95;;
47772;SDS011;33534;51.028;13.716;2022-12-18T14:01:28;48.60;;;21.30;;
47772;SDS011;33534;51.028;13.716;2022-12-18T14:06:33;46.85;;;19.85;;
47772;SDS011;33534;51.028;13.716;2022-12-18T14:09:25;42.15;;;20.17;;
47772;SDS011;33534;51.028;13.716;2022-12-18T14:11:52;43.58;;;19.42;;
47772;SDS011;33534;51.028;13.716;2022-12-18T14:14:40;42.85;;;19.92;;
47772;SDS011;33534;51.028;13.716;2022-12-18T14:17:08;43.38;;;18.20;;
47772;SDS011;33534;51.028;13.716;2022-12-18T14:19:35;42.50;;;18.38;;
47772;SDS011;33534;51.028;13.716;2022-12-18T14:22:01;46.78;;;19.98;;
47772;SDS011;33534;51.028;13.716;2022-12-18T14:24:27;42.60;;;20.70;;
47772;SDS011;33534;51.028;13.716;2022-12-18T14:26:57;39.30;;;18.67;;
47772;SDS011;33534;51.028;13.716;2022-12-18T14:29:37;40.92;;;18.65;;
47772;SDS011;33534;51.028;13.716;2022-12-18T14:32:19;43.88;;;18.83;;
47772;SDS011;33534;51.028;13.716;2022-12-18T14:34:49;44.42;;;18.00;;
47772;SDS011;33534;51.028;13.716;2022-12-18T14:37:16;31.13;;;14.88;;
47772;SDS011;33534;51.028;13.716;2022-12-18T14:39:52;47.13;;;19.13;;
47772;SDS011;33534;51.028;13.716;2022-12-18T14:42:19;45.25;;;18.65;;
47772;SDS011;33534;51.028;13.716;2022-12-18T14:44:45;42.08;;;18.63;;
47772;SDS011;33534;51.028;13.716;2022-12-18T14:47:15;38.00;;;17.92;;
47772;SDS011;33534;51.028;13.716;2022-12-18T14:49:41;38.20;;;17.73;;
47772;SDS011;33534;51.028;13.716;2022-12-18T14:52:20;35.97;;;17.83;;
47772;SDS011;33534;51.028;13.716;2022-12-18T14:54:48;44.03;;;18.98;;
47772;SDS011;33534;51.028;13.716;2022-12-18T14:57:21;37.53;;;19.08;;
47772;SDS011;33534;51.028;13.716;2022-12-18T14:59:48;36.55;;;17.13;;
47772;SDS011;33534;51.028;13.716;2022-12-18T15:02:21;34.45;;;17.20;;
47772;SDS011;33534;51.028;13.716;2022-12-18T15:04:59;43.13;;;17.55;;
47772;SDS011;33534;51.028;13.716;2022-12-18T15:07:25;44.80;;;18.23;;
47772;SDS011;33534;51.028;13.716;2022-12-18T15:10:03;41.70;;;18.80;;
47772;SDS011;33534;51.028;13.716;2022-12-18T15:12:33;47.40;;;20.38;;
47772;SDS011;33534;51.028;13.716;2022-12-18T15:14:59;39.03;;;17.92;;
47772;SDS011;33534;51.028;13.716;2022-12-18T15:17:25;44.70;;;18.63;;
47772;SDS011;33534;51.028;13.716;2022-12-18T15:19:53;44.78;;;20.08;;
47772;SDS011;33534;51.028;13.716;2022-12-18T15:22:27;39.90;;;18.48;;
47772;SDS011;33534;51.028;13.716;2022-12-18T15:24:54;49.45;;;20.05;;
47772;SDS011;33534;51.028;13.716;2022-12-18T15:27:38;46.85;;;20.95;;
47772;SDS011;33534;51.028;13.716;2022-12-18T15:32:34;45.13;;;19.75;;
47772;SDS011;33534;51.028;13.716;2022-12-18T15:35:03;43.42;;;19.65;;
47772;SDS011;33534;51.028;13.716;2022-12-18T15:37:29;41.38;;;19.25;;
47772;SDS011;33534;51.028;13.716;2022-12-18T15:39:55;43.33;;;20.70;;
47772;SDS011;33534;51.028;13.716;2022-12-18T15:42:21;43.85;;;20.00;;
47772;SDS011;33534;51.028;13.716;2022-12-18T15:45:07;43.55;;;18.35;;
47772;SDS011;33534;51.028;13.716;2022-12-18T15:47:34;42.88;;;18.38;;
47772;SDS011;33534;51.028;13.716;2022-12-18T15:50:00;37.80;;;17.92;;
47772;SDS011;33534;51.028;13.716;2022-12-18T15:52:27;41.53;;;18.92;;
47772;SDS011;33534;51.028;13.716;2022-12-18T15:54:53;41.08;;;18.90;;
47772;SDS011;33534;51.028;13.716;2022-12-18T15:57:38;44.38;;;19.58;;
47772;SDS011;33534;51.028;13.716;2022-12-18T16:00:04;44.92;;;19.10;;